sensor_id;sensor_type;location;lat;lon;timestamp;P1;durP1;ratioP1;P2;durP2;ratioP2
15996;SDS011;8103;51.340;12.326;2022-10-17T00:01:01;3.53;;;2.05;;
15996;SDS011;8103;51.340;12.326;2022-10-17T00:03:32;3.28;;;2.55;;
15996;SDS011;8103;51.340;12.326;2022-10-17T00:06:09;2.92;;;2.63;;
15996;SDS011;8103;51.340;12.326;2022-10-17T00:08:39;3.22;;;2.67;;
15996;SDS011;8103;51.340;12.326;2022-10-17T00:11:12;2.90;;;2.60;;
15996;SDS011;8103;51.340;12.326;2022-10-17T00:13:46;2.70;;;2.50;;
15996;SDS011;8103;51.340;12.326;2022-10-17T00:16:23;3.33;;;2.88;;
15996;SDS011;8103;51.340;12.326;2022-10-17T00:18:57;3.55;;;2.80;;
15996;SDS011;8103;51.340;12.326;2022-10-17T00:21:25;3.13;;;2.80;;
15996;SDS011;8103;51.340;12.326;2022-10-17T00:23:52;2.67;;;2.47;;
15996;SDS011;8103;51.340;12.326;2022-10-17T00:26:20;3.55;;;2.85;;
15996;SDS011;8103;51.340;12.326;2022-10-17T00:28:48;3.20;;;2.90;;
15996;SDS011;8103;51.340;12.326;2022-10-17T00:31:17;3.83;;;2.72;;
15996;SDS011;8103;51.340;12.326;2022-10-17T00:33:47;5.20;;;3.30;;
15996;SDS011;8103;51.340;12.326;2022-10-17T00:36:15;3.20;;;2.38;;
15996;SDS011;8103;51.340;12.326;2022-10-17T00:38:50;2.95;;;2.50;;
15996;SDS011;8103;51.340;12.326;2022-10-17T00:41:26;3.42;;;2.85;;
15996;SDS011;8103;51.340;12.326;2022-10-17T00:44:01;2.70;;;2.50;;
15996;SDS011;8103;51.340;12.326;2022-10-17T00:46:35;4.75;;;2.60;;
15996;SDS011;8103;51.340;12.326;2022-10-17T00:49:05;2.65;;;2.45;;
15996;SDS011;8103;51.340;12.326;2022-10-17T00:52:21;4.07;;;2.28;;
15996;SDS011;8103;51.340;12.326;2022-10-17T00:54:34;2.80;;;2.50;;
15996;SDS011;8103;51.340;12.326;2022-10-17T00:57:08;2.78;;;2.58;;
15996;SDS011;8103;51.340;12.326;2022-10-17T00:59:37;2.90;;;2.60;;
15996;SDS011;8103;51.340;12.326;2022-10-17T01:02:09;2.53;;;2.30;;
15996;SDS011;8103;51.340;12.326;2022-10-17T01:04:43;3.63;;;3.25;;
15996;SDS011;8103;51.340;12.326;2022-10-17T01:07:14;2.65;;;2.25;;
15996;SDS011;8103;51.340;12.326;2022-10-17T01:09:41;3.63;;;2.30;;
15996;SDS011;8103;51.340;12.326;2022-10-17T01:29:46;3.13;;;2.72;;
15996;SDS011;8103;51.340;12.326;2022-10-17T01:32:48;3.85;;;3.05;;
15996;SDS011;8103;51.340;12.326;2022-10-17T01:35:31;4.03;;;2.53;;
15996;SDS011;8103;51.340;12.326;2022-10-17T01:38:27;4.10;;;2.78;;
15996;SDS011;8103;51.340;12.326;2022-10-17T01:44:26;2.70;;;2.50;;
15996;SDS011;8103;51.340;12.326;2022-10-17T01:46:49;3.05;;;2.85;;
15996;SDS011;8103;51.340;12.326;2022-10-17T01:49:23;2.85;;;2.30;;
15996;SDS011;8103;51.340;12.326;2022-10-17T01:52:00;3.17;;;2.92;;
15996;SDS011;8103;51.340;12.326;2022-10-17T01:54:44;2.95;;;2.63;;
15996;SDS011;8103;51.340;12.326;2022-10-17T01:57:28;2.80;;;2.58;;
15996;SDS011;8103;51.340;12.326;2022-10-17T02:00:07;3.30;;;2.70;;
15996;SDS011;8103;51.340;12.326;2022-10-17T02:02:44;5.43;;;3.05;;
15996;SDS011;8103;51.340;12.326;2022-10-17T02:05:16;3.20;;;2.58;;
15996;SDS011;8103;51.340;12.326;2022-10-17T02:07:50;3.22;;;2.67;;
15996;SDS011;8103;51.340;12.326;2022-10-17T02:10:19;2.40;;;2.20;;
15996;SDS011;8103;51.340;12.326;2022-10-17T02:13:03;2.35;;;2.15;;
15996;SDS011;8103;51.340;12.326;2022-10-17T02:24:58;2.40;;;2.17;;
15996;SDS011;8103;51.340;12.326;2022-10-17T02:27:47;2.58;;;2.38;;
15996;SDS011;8103;51.340;12.326;2022-10-17T02:30:50;4.28;;;2.60;;
15996;SDS011;8103;51.340;12.326;2022-10-17T02:36:22;2.10;;;1.90;;
15996;SDS011;8103;51.340;12.326;2022-10-17T02:38:57;2.65;;;2.45;;
15996;SDS011;8103;51.340;12.326;2022-10-17T02:41:27;4.88;;;2.58;;
15996;SDS011;8103;51.340;12.326;2022-10-17T02:43:56;2.78;;;2.33;;
15996;SDS011;8103;51.340;12.326;2022-10-17T02:46:26;2.95;;;2.75;;
15996;SDS011;8103;51.340;12.326;2022-10-17T02:48:57;3.22;;;2.90;;
15996;SDS011;8103;51.340;12.326;2022-10-17T02:54:51;2.38;;;2.17;;
15996;SDS011;8103;51.340;12.326;2022-10-17T02:57:39;3.58;;;2.40;;
15996;SDS011;8103;51.340;12.326;2022-10-17T03:00:15;3.00;;;2.47;;
15996;SDS011;8103;51.340;12.326;2022-10-17T03:02:46;2.47;;;2.20;;
15996;SDS011;8103;51.340;12.326;2022-10-17T03:05:17;3.55;;;2.63;;
15996;SDS011;8103;51.340;12.326;2022-10-17T03:07:51;2.28;;;2.08;;
15996;SDS011;8103;51.340;12.326;2022-10-17T03:10:20;4.72;;;2.45;;
15996;SDS011;8103;51.340;12.326;2022-10-17T03:12:48;4.63;;;2.65;;
15996;SDS011;8103;51.340;12.326;2022-10-17T03:15:15;3.10;;;2.58;;
15996;SDS011;8103;51.340;12.326;2022-10-17T03:17:42;3.30;;;2.45;;
15996;SDS011;8103;51.340;12.326;2022-10-17T03:20:14;2.92;;;2.53;;
15996;SDS011;8103;51.340;12.326;2022-10-17T03:22:41;4.40;;;2.70;;
15996;SDS011;8103;51.340;12.326;2022-10-17T03:25:08;2.60;;;2.28;;
15996;SDS011;8103;51.340;12.326;2022-10-17T03:27:35;2.80;;;2.60;;
15996;SDS011;8103;51.340;12.326;2022-10-17T03:30:02;4.65;;;2.65;;
15996;SDS011;8103;51.340;12.326;2022-10-17T03:32:31;4.28;;;2.67;;
15996;SDS011;8103;51.340;12.326;2022-10-17T03:34:59;3.28;;;2.97;;
15996;SDS011;8103;51.340;12.326;2022-10-17T03:37:27;3.20;;;2.85;;
15996;SDS011;8103;51.340;12.326;2022-10-17T03:39:54;3.30;;;2.50;;
15996;SDS011;8103;51.340;12.326;2022-10-17T03:42:21;2.50;;;2.17;;
15996;SDS011;8103;51.340;12.326;2022-10-17T03:44:48;5.60;;;2.75;;
15996;SDS011;8103;51.340;12.326;2022-10-17T03:47:15;3.40;;;2.28;;
15996;SDS011;8103;51.340;12.326;2022-10-17T03:49:45;2.88;;;2.35;;
15996;SDS011;8103;51.340;12.326;2022-10-17T03:52:25;3.53;;;2.30;;
15996;SDS011;8103;51.340;12.326;2022-10-17T03:54:52;3.20;;;2.80;;
15996;SDS011;8103;51.340;12.326;2022-10-17T03:57:19;4.15;;;2.53;;
15996;SDS011;8103;51.340;12.326;2022-10-17T03:59:46;5.00;;;2.45;;
15996;SDS011;8103;51.340;12.326;2022-10-17T04:02:15;3.42;;;2.63;;
15996;SDS011;8103;51.340;12.326;2022-10-17T04:04:42;4.00;;;2.78;;
15996;SDS011;8103;51.340;12.326;2022-10-17T04:07:09;3.50;;;2.90;;
15996;SDS011;8103;51.340;12.326;2022-10-17T04:09:36;4.43;;;2.55;;
15996;SDS011;8103;51.340;12.326;2022-10-17T04:12:03;3.75;;;2.47;;
15996;SDS011;8103;51.340;12.326;2022-10-17T04:14:30;3.17;;;2.85;;
15996;SDS011;8103;51.340;12.326;2022-10-17T04:16:57;2.80;;;2.58;;
15996;SDS011;8103;51.340;12.326;2022-10-17T04:19:24;3.70;;;3.10;;
15996;SDS011;8103;51.340;12.326;2022-10-17T04:21:51;5.45;;;2.72;;
15996;SDS011;8103;51.340;12.326;2022-10-17T04:24:18;3.35;;;2.60;;
15996;SDS011;8103;51.340;12.326;2022-10-17T04:31:02;9.18;;;3.25;;
15996;SDS011;8103;51.340;12.326;2022-10-17T04:33:35;3.03;;;2.65;;
15996;SDS011;8103;51.340;12.326;2022-10-17T04:36:03;2.35;;;2.13;;
15996;SDS011;8103;51.340;12.326;2022-10-17T04:38:32;3.08;;;2.78;;
15996;SDS011;8103;51.340;12.326;2022-10-17T04:41:00;3.25;;;2.83;;
15996;SDS011;8103;51.340;12.326;2022-10-17T04:43:30;3.13;;;2.83;;
15996;SDS011;8103;51.340;12.326;2022-10-17T04:46:03;3.10;;;2.80;;
15996;SDS011;8103;51.340;12.326;2022-10-17T04:48:36;3.70;;;3.40;;
15996;SDS011;8103;51.340;12.326;2022-10-17T04:51:05;2.83;;;2.60;;
15996;SDS011;8103;51.340;12.326;2022-10-17T04:53:37;3.17;;;2.75;;
15996;SDS011;8103;51.340;12.326;2022-10-17T04:56:10;2.90;;;2.58;;
15996;SDS011;8103;51.340;12.326;2022-10-17T04:58:42;3.28;;;2.83;;
15996;SDS011;8103;51.340;12.326;2022-10-17T05:01:11;3.50;;;2.60;;
15996;SDS011;8103;51.340;12.326;2022-10-17T05:03:41;4.55;;;2.92;;
15996;SDS011;8103;51.340;12.326;2022-10-17T05:06:12;6.88;;;2.92;;
15996;SDS011;8103;51.340;12.326;2022-10-17T05:08:43;6.15;;;3.22;;
15996;SDS011;8103;51.340;12.326;2022-10-17T05:11:17;3.33;;;2.78;;
15996;SDS011;8103;51.340;12.326;2022-10-17T05:13:51;3.75;;;2.75;;
15996;SDS011;8103;51.340;12.326;2022-10-17T05:16:24;3.53;;;3.22;;
15996;SDS011;8103;51.340;12.326;2022-10-17T05:18:54;3.20;;;2.75;;
15996;SDS011;8103;51.340;12.326;2022-10-17T05:21:23;3.88;;;2.78;;
15996;SDS011;8103;51.340;12.326;2022-10-17T05:23:53;4.05;;;2.90;;
15996;SDS011;8103;51.340;12.326;2022-10-17T05:26:21;6.43;;;2.60;;
15996;SDS011;8103;51.340;12.326;2022-10-17T05:28:49;3.50;;;2.88;;
15996;SDS011;8103;51.340;12.326;2022-10-17T05:31:17;3.70;;;2.58;;
15996;SDS011;8103;51.340;12.326;2022-10-17T05:33:44;3.60;;;2.53;;
15996;SDS011;8103;51.340;12.326;2022-10-17T05:36:11;7.07;;;3.42;;
15996;SDS011;8103;51.340;12.326;2022-10-17T05:38:38;4.40;;;2.45;;
15996;SDS011;8103;51.340;12.326;2022-10-17T05:41:05;7.72;;;3.22;;
15996;SDS011;8103;51.340;12.326;2022-10-17T05:43:32;5.38;;;2.20;;
15996;SDS011;8103;51.340;12.326;2022-10-17T05:46:04;3.15;;;2.85;;
15996;SDS011;8103;51.340;12.326;2022-10-17T05:48:32;4.03;;;2.45;;
15996;SDS011;8103;51.340;12.326;2022-10-17T05:51:01;4.72;;;2.67;;
15996;SDS011;8103;51.340;12.326;2022-10-17T05:53:33;3.40;;;2.50;;
15996;SDS011;8103;51.340;12.326;2022-10-17T05:56:04;4.35;;;2.35;;
15996;SDS011;8103;51.340;12.326;2022-10-17T05:58:38;4.10;;;2.15;;
15996;SDS011;8103;51.340;12.326;2022-10-17T06:01:19;2.50;;;2.25;;
15996;SDS011;8103;51.340;12.326;2022-10-17T06:03:46;2.72;;;2.40;;
15996;SDS011;8103;51.340;12.326;2022-10-17T06:06:13;5.35;;;2.90;;
15996;SDS011;8103;51.340;12.326;2022-10-17T06:08:41;4.72;;;2.50;;
15996;SDS011;8103;51.340;12.326;2022-10-17T06:11:10;6.40;;;2.85;;
15996;SDS011;8103;51.340;12.326;2022-10-17T06:13:38;5.28;;;2.85;;
15996;SDS011;8103;51.340;12.326;2022-10-17T06:16:05;4.63;;;2.63;;
15996;SDS011;8103;51.340;12.326;2022-10-17T06:18:32;3.45;;;2.85;;
15996;SDS011;8103;51.340;12.326;2022-10-17T06:21:03;6.95;;;2.55;;
15996;SDS011;8103;51.340;12.326;2022-10-17T06:23:35;4.65;;;2.22;;
15996;SDS011;8103;51.340;12.326;2022-10-17T06:26:03;4.95;;;2.60;;
15996;SDS011;8103;51.340;12.326;2022-10-17T06:28:33;6.82;;;3.28;;
15996;SDS011;8103;51.340;12.326;2022-10-17T06:31:05;7.97;;;2.80;;
15996;SDS011;8103;51.340;12.326;2022-10-17T06:33:36;4.60;;;3.50;;
15996;SDS011;8103;51.340;12.326;2022-10-17T06:36:04;5.55;;;3.03;;
15996;SDS011;8103;51.340;12.326;2022-10-17T06:38:33;3.05;;;2.78;;
15996;SDS011;8103;51.340;12.326;2022-10-17T06:41:03;5.88;;;2.88;;
15996;SDS011;8103;51.340;12.326;2022-10-17T06:43:39;3.67;;;2.90;;
15996;SDS011;8103;51.340;12.326;2022-10-17T06:46:12;4.40;;;3.13;;
15996;SDS011;8103;51.340;12.326;2022-10-17T06:48:42;7.13;;;3.42;;
15996;SDS011;8103;51.340;12.326;2022-10-17T06:51:09;5.00;;;2.92;;
15996;SDS011;8103;51.340;12.326;2022-10-17T06:53:38;4.18;;;2.50;;
15996;SDS011;8103;51.340;12.326;2022-10-17T06:56:06;3.88;;;3.05;;
15996;SDS011;8103;51.340;12.326;2022-10-17T06:58:37;7.03;;;2.65;;
15996;SDS011;8103;51.340;12.326;2022-10-17T07:01:09;4.32;;;2.45;;
15996;SDS011;8103;51.340;12.326;2022-10-17T07:03:38;3.67;;;2.33;;
15996;SDS011;8103;51.340;12.326;2022-10-17T07:06:06;2.17;;;1.98;;
15996;SDS011;8103;51.340;12.326;2022-10-17T07:08:36;5.03;;;2.92;;
15996;SDS011;8103;51.340;12.326;2022-10-17T07:11:13;7.30;;;3.03;;
15996;SDS011;8103;51.340;12.326;2022-10-17T07:13:42;3.35;;;2.97;;
15996;SDS011;8103;51.340;12.326;2022-10-17T07:16:10;3.83;;;2.30;;
15996;SDS011;8103;51.340;12.326;2022-10-17T07:18:38;4.65;;;2.72;;
15996;SDS011;8103;51.340;12.326;2022-10-17T07:21:06;6.05;;;2.42;;
15996;SDS011;8103;51.340;12.326;2022-10-17T07:23:34;9.32;;;2.97;;
15996;SDS011;8103;51.340;12.326;2022-10-17T07:26:03;2.60;;;2.10;;
15996;SDS011;8103;51.340;12.326;2022-10-17T07:28:34;3.85;;;2.40;;
15996;SDS011;8103;51.340;12.326;2022-10-17T07:31:07;5.43;;;2.20;;
15996;SDS011;8103;51.340;12.326;2022-10-17T07:33:42;4.97;;;2.65;;
15996;SDS011;8103;51.340;12.326;2022-10-17T07:36:15;3.00;;;2.10;;
15996;SDS011;8103;51.340;12.326;2022-10-17T07:38:43;3.17;;;2.20;;
15996;SDS011;8103;51.340;12.326;2022-10-17T07:41:10;3.90;;;2.40;;
15996;SDS011;8103;51.340;12.326;2022-10-17T07:43:41;3.30;;;2.22;;
15996;SDS011;8103;51.340;12.326;2022-10-17T07:46:08;6.30;;;2.03;;
15996;SDS011;8103;51.340;12.326;2022-10-17T07:48:37;9.80;;;3.10;;
15996;SDS011;8103;51.340;12.326;2022-10-17T07:51:06;3.90;;;2.45;;
15996;SDS011;8103;51.340;12.326;2022-10-17T07:53:35;8.85;;;2.90;;
15996;SDS011;8103;51.340;12.326;2022-10-17T07:56:06;4.53;;;2.20;;
15996;SDS011;8103;51.340;12.326;2022-10-17T07:58:37;6.93;;;2.80;;
15996;SDS011;8103;51.340;12.326;2022-10-17T08:01:06;2.47;;;2.13;;
15996;SDS011;8103;51.340;12.326;2022-10-17T08:03:39;5.53;;;1.83;;
15996;SDS011;8103;51.340;12.326;2022-10-17T08:06:10;5.07;;;1.80;;
15996;SDS011;8103;51.340;12.326;2022-10-17T08:08:38;2.75;;;2.15;;
15996;SDS011;8103;51.340;12.326;2022-10-17T08:11:08;3.45;;;1.83;;
15996;SDS011;8103;51.340;12.326;2022-10-17T08:13:37;3.67;;;2.15;;
15996;SDS011;8103;51.340;12.326;2022-10-17T08:16:07;3.22;;;2.05;;
15996;SDS011;8103;51.340;12.326;2022-10-17T08:18:38;4.15;;;2.35;;
15996;SDS011;8103;51.340;12.326;2022-10-17T08:21:08;3.88;;;1.92;;
15996;SDS011;8103;51.340;12.326;2022-10-17T08:23:38;3.05;;;1.80;;
15996;SDS011;8103;51.340;12.326;2022-10-17T08:26:06;2.55;;;2.30;;
15996;SDS011;8103;51.340;12.326;2022-10-17T08:28:36;4.20;;;2.10;;
15996;SDS011;8103;51.340;12.326;2022-10-17T08:31:05;2.40;;;1.73;;
15996;SDS011;8103;51.340;12.326;2022-10-17T08:33:37;3.58;;;1.90;;
15996;SDS011;8103;51.340;12.326;2022-10-17T08:36:04;6.68;;;2.33;;
15996;SDS011;8103;51.340;12.326;2022-10-17T08:38:34;2.75;;;1.98;;
15996;SDS011;8103;51.340;12.326;2022-10-17T08:41:12;2.53;;;1.90;;
15996;SDS011;8103;51.340;12.326;2022-10-17T08:44:00;5.75;;;1.80;;
15996;SDS011;8103;51.340;12.326;2022-10-17T08:46:58;3.40;;;2.00;;
15996;SDS011;8103;51.340;12.326;2022-10-17T08:49:48;2.47;;;1.45;;
15996;SDS011;8103;51.340;12.326;2022-10-17T08:52:28;1.80;;;1.50;;
15996;SDS011;8103;51.340;12.326;2022-10-17T08:55:28;4.68;;;1.88;;
15996;SDS011;8103;51.340;12.326;2022-10-17T08:58:18;3.47;;;1.55;;
15996;SDS011;8103;51.340;12.326;2022-10-17T09:01:08;5.20;;;2.08;;
15996;SDS011;8103;51.340;12.326;2022-10-17T09:06:42;5.03;;;2.30;;
15996;SDS011;8103;51.340;12.326;2022-10-17T09:18:38;5.88;;;2.05;;
15996;SDS011;8103;51.340;12.326;2022-10-17T09:21:24;1.95;;;1.85;;
15996;SDS011;8103;51.340;12.326;2022-10-17T09:24:38;7.63;;;2.28;;
15996;SDS011;8103;51.340;12.326;2022-10-17T09:27:43;2.83;;;2.20;;
15996;SDS011;8103;51.340;12.326;2022-10-17T09:33:19;5.38;;;2.33;;
15996;SDS011;8103;51.340;12.326;2022-10-17T09:36:01;2.08;;;1.50;;
15996;SDS011;8103;51.340;12.326;2022-10-17T09:39:12;1.83;;;1.70;;
15996;SDS011;8103;51.340;12.326;2022-10-17T09:41:48;3.08;;;2.13;;
15996;SDS011;8103;51.340;12.326;2022-10-17T09:44:32;5.78;;;1.98;;
15996;SDS011;8103;51.340;12.326;2022-10-17T09:49:56;1.98;;;1.77;;
15996;SDS011;8103;51.340;12.326;2022-10-17T09:52:33;3.60;;;2.17;;
15996;SDS011;8103;51.340;12.326;2022-10-17T09:58:05;2.97;;;2.08;;
15996;SDS011;8103;51.340;12.326;2022-10-17T10:00:42;3.63;;;1.80;;
15996;SDS011;8103;51.340;12.326;2022-10-17T10:05:56;5.65;;;2.00;;
15996;SDS011;8103;51.340;12.326;2022-10-17T10:11:23;2.75;;;1.95;;
15996;SDS011;8103;51.340;12.326;2022-10-17T10:14:21;4.78;;;1.65;;
15996;SDS011;8103;51.340;12.326;2022-10-17T10:17:02;5.50;;;2.10;;
15996;SDS011;8103;51.340;12.326;2022-10-17T10:19:32;2.17;;;1.90;;
15996;SDS011;8103;51.340;12.326;2022-10-17T10:22:04;6.72;;;1.75;;
15996;SDS011;8103;51.340;12.326;2022-10-17T10:24:44;3.13;;;1.55;;
15996;SDS011;8103;51.340;12.326;2022-10-17T10:27:11;6.32;;;1.80;;
15996;SDS011;8103;51.340;12.326;2022-10-17T10:29:50;3.83;;;1.70;;
15996;SDS011;8103;51.340;12.326;2022-10-17T10:32:25;2.80;;;1.73;;
15996;SDS011;8103;51.340;12.326;2022-10-17T10:34:58;5.30;;;1.70;;
15996;SDS011;8103;51.340;12.326;2022-10-17T10:37:48;5.65;;;1.67;;
15996;SDS011;8103;51.340;12.326;2022-10-17T10:40:23;3.20;;;2.00;;
15996;SDS011;8103;51.340;12.326;2022-10-17T10:43:21;2.25;;;1.42;;
15996;SDS011;8103;51.340;12.326;2022-10-17T10:46:19;2.03;;;1.67;;
15996;SDS011;8103;51.340;12.326;2022-10-17T10:48:54;2.17;;;1.40;;
15996;SDS011;8103;51.340;12.326;2022-10-17T10:51:32;3.55;;;1.70;;
15996;SDS011;8103;51.340;12.326;2022-10-17T10:56:55;5.00;;;1.52;;
15996;SDS011;8103;51.340;12.326;2022-10-17T11:02:29;2.70;;;1.60;;
15996;SDS011;8103;51.340;12.326;2022-10-17T11:11:19;3.33;;;1.60;;
15996;SDS011;8103;51.340;12.326;2022-10-17T11:17:26;3.15;;;1.60;;
15996;SDS011;8103;51.340;12.326;2022-10-17T11:22:40;2.95;;;1.58;;
15996;SDS011;8103;51.340;12.326;2022-10-17T11:28:13;2.88;;;1.67;;
15996;SDS011;8103;51.340;12.326;2022-10-17T11:31:03;5.35;;;1.77;;
15996;SDS011;8103;51.340;12.326;2022-10-17T11:33:58;3.13;;;1.55;;
15996;SDS011;8103;51.340;12.326;2022-10-17T11:36:33;1.75;;;1.65;;
15996;SDS011;8103;51.340;12.326;2022-10-17T11:39:10;2.88;;;2.00;;
15996;SDS011;8103;51.340;12.326;2022-10-17T11:44:21;3.78;;;1.70;;
15996;SDS011;8103;51.340;12.326;2022-10-17T11:49:40;5.35;;;1.95;;
15996;SDS011;8103;51.340;12.326;2022-10-17T11:52:29;6.55;;;1.77;;
15996;SDS011;8103;51.340;12.326;2022-10-17T11:55:27;2.83;;;1.73;;
15996;SDS011;8103;51.340;12.326;2022-10-17T12:04:13;3.75;;;1.60;;
15996;SDS011;8103;51.340;12.326;2022-10-17T12:10:20;4.07;;;2.03;;
15996;SDS011;8103;51.340;12.326;2022-10-17T12:15:53;3.17;;;1.45;;
15996;SDS011;8103;51.340;12.326;2022-10-17T12:18:22;3.45;;;1.60;;
15996;SDS011;8103;51.340;12.326;2022-10-17T12:20:55;4.07;;;1.67;;
15996;SDS011;8103;51.340;12.326;2022-10-17T12:26:00;3.13;;;1.73;;
15996;SDS011;8103;51.340;12.326;2022-10-17T12:31:07;3.33;;;1.98;;
15996;SDS011;8103;51.340;12.326;2022-10-17T12:34:02;2.40;;;2.00;;
15996;SDS011;8103;51.340;12.326;2022-10-17T12:44:50;3.28;;;2.35;;
15996;SDS011;8103;51.340;12.326;2022-10-17T12:47:26;3.38;;;2.25;;
15996;SDS011;8103;51.340;12.326;2022-10-17T12:49:50;4.07;;;1.80;;
15996;SDS011;8103;51.340;12.326;2022-10-17T13:03:40;2.58;;;1.92;;
15996;SDS011;8103;51.340;12.326;2022-10-17T13:06:18;5.13;;;1.38;;
15996;SDS011;8103;51.340;12.326;2022-10-17T13:08:53;6.65;;;1.60;;
15996;SDS011;8103;51.340;12.326;2022-10-17T13:11:30;6.20;;;1.90;;
15996;SDS011;8103;51.340;12.326;2022-10-17T13:14:01;6.00;;;1.80;;
15996;SDS011;8103;51.340;12.326;2022-10-17T13:19:13;2.88;;;1.70;;
15996;SDS011;8103;51.340;12.326;2022-10-17T13:21:50;3.83;;;1.85;;
15996;SDS011;8103;51.340;12.326;2022-10-17T13:24:38;2.58;;;1.52;;
15996;SDS011;8103;51.340;12.326;2022-10-17T13:27:20;9.10;;;2.22;;
15996;SDS011;8103;51.340;12.326;2022-10-17T13:29:54;5.60;;;1.55;;
15996;SDS011;8103;51.340;12.326;2022-10-17T13:32:24;3.15;;;1.50;;
15996;SDS011;8103;51.340;12.326;2022-10-17T13:35:04;4.18;;;1.80;;
15996;SDS011;8103;51.340;12.326;2022-10-17T13:37:40;7.13;;;2.25;;
15996;SDS011;8103;51.340;12.326;2022-10-17T13:40:26;4.22;;;1.30;;
15996;SDS011;8103;51.340;12.326;2022-10-17T13:43:14;10.18;;;2.33;;
15996;SDS011;8103;51.340;12.326;2022-10-17T13:45:50;4.85;;;1.85;;
15996;SDS011;8103;51.340;12.326;2022-10-17T13:48:25;7.22;;;2.05;;
15996;SDS011;8103;51.340;12.326;2022-10-17T13:50:56;3.33;;;1.40;;
15996;SDS011;8103;51.340;12.326;2022-10-17T13:53:36;6.40;;;2.20;;
15996;SDS011;8103;51.340;12.326;2022-10-17T13:56:21;4.20;;;1.75;;
15996;SDS011;8103;51.340;12.326;2022-10-17T13:58:55;3.63;;;2.30;;
15996;SDS011;8103;51.340;12.326;2022-10-17T14:01:27;3.05;;;1.50;;
15996;SDS011;8103;51.340;12.326;2022-10-17T14:03:55;5.05;;;1.55;;
15996;SDS011;8103;51.340;12.326;2022-10-17T14:06:33;4.47;;;1.23;;
15996;SDS011;8103;51.340;12.326;2022-10-17T14:09:20;2.30;;;1.52;;
15996;SDS011;8103;51.340;12.326;2022-10-17T14:11:56;3.50;;;1.70;;
15996;SDS011;8103;51.340;12.326;2022-10-17T14:14:36;3.35;;;1.55;;
15996;SDS011;8103;51.340;12.326;2022-10-17T14:17:26;4.30;;;1.70;;
15996;SDS011;8103;51.340;12.326;2022-10-17T14:19:56;3.65;;;1.77;;
15996;SDS011;8103;51.340;12.326;2022-10-17T14:22:49;3.33;;;1.67;;
15996;SDS011;8103;51.340;12.326;2022-10-17T14:25:38;6.85;;;1.60;;
15996;SDS011;8103;51.340;12.326;2022-10-17T14:30:46;4.30;;;1.63;;
15996;SDS011;8103;51.340;12.326;2022-10-17T14:33:23;2.25;;;1.60;;
15996;SDS011;8103;51.340;12.326;2022-10-17T14:35:56;4.30;;;2.10;;
15996;SDS011;8103;51.340;12.326;2022-10-17T14:38:26;4.75;;;1.80;;
15996;SDS011;8103;51.340;12.326;2022-10-17T14:40:57;7.65;;;2.33;;
15996;SDS011;8103;51.340;12.326;2022-10-17T14:43:52;4.05;;;2.15;;
15996;SDS011;8103;51.340;12.326;2022-10-17T14:46:35;1.90;;;1.60;;
15996;SDS011;8103;51.340;12.326;2022-10-17T14:49:06;2.55;;;1.75;;
15996;SDS011;8103;51.340;12.326;2022-10-17T14:54:50;3.72;;;1.67;;
15996;SDS011;8103;51.340;12.326;2022-10-17T14:57:22;5.03;;;1.40;;
15996;SDS011;8103;51.340;12.326;2022-10-17T14:59:58;3.10;;;1.77;;
15996;SDS011;8103;51.340;12.326;2022-10-17T15:02:26;1.90;;;1.58;;
15996;SDS011;8103;51.340;12.326;2022-10-17T15:04:55;3.42;;;2.10;;
15996;SDS011;8103;51.340;12.326;2022-10-17T15:07:22;4.10;;;2.15;;
15996;SDS011;8103;51.340;12.326;2022-10-17T15:09:50;3.00;;;1.98;;
15996;SDS011;8103;51.340;12.326;2022-10-17T15:12:22;2.88;;;2.22;;
15996;SDS011;8103;51.340;12.326;2022-10-17T15:14:51;5.13;;;2.05;;
15996;SDS011;8103;51.340;12.326;2022-10-17T15:17:26;4.10;;;1.77;;
15996;SDS011;8103;51.340;12.326;2022-10-17T15:19:56;4.20;;;2.10;;
15996;SDS011;8103;51.340;12.326;2022-10-17T15:22:24;7.53;;;2.65;;
15996;SDS011;8103;51.340;12.326;2022-10-17T15:24:51;6.90;;;2.33;;
15996;SDS011;8103;51.340;12.326;2022-10-17T15:27:19;2.47;;;1.45;;
15996;SDS011;8103;51.340;12.326;2022-10-17T15:29:49;3.58;;;2.20;;
15996;SDS011;8103;51.340;12.326;2022-10-17T15:32:18;2.92;;;2.15;;
15996;SDS011;8103;51.340;12.326;2022-10-17T15:34:45;5.97;;;2.28;;
15996;SDS011;8103;51.340;12.326;2022-10-17T15:37:16;5.07;;;1.70;;
15996;SDS011;8103;51.340;12.326;2022-10-17T15:39:49;4.53;;;2.15;;
15996;SDS011;8103;51.340;12.326;2022-10-17T15:42:20;4.63;;;2.20;;
15996;SDS011;8103;51.340;12.326;2022-10-17T15:44:52;2.78;;;2.40;;
15996;SDS011;8103;51.340;12.326;2022-10-17T15:47:24;3.38;;;2.00;;
15996;SDS011;8103;51.340;12.326;2022-10-17T15:49:56;3.53;;;1.92;;
15996;SDS011;8103;51.340;12.326;2022-10-17T15:52:23;2.88;;;1.95;;
15996;SDS011;8103;51.340;12.326;2022-10-17T15:54:50;5.22;;;2.20;;
15996;SDS011;8103;51.340;12.326;2022-10-17T15:57:23;4.55;;;2.40;;
15996;SDS011;8103;51.340;12.326;2022-10-17T15:59:58;2.50;;;1.90;;
15996;SDS011;8103;51.340;12.326;2022-10-17T16:02:25;3.22;;;2.30;;
15996;SDS011;8103;51.340;12.326;2022-10-17T16:04:53;3.00;;;2.30;;
15996;SDS011;8103;51.340;12.326;2022-10-17T16:07:20;2.85;;;2.15;;
15996;SDS011;8103;51.340;12.326;2022-10-17T16:09:47;4.82;;;2.85;;
15996;SDS011;8103;51.340;12.326;2022-10-17T16:12:20;4.53;;;2.80;;
15996;SDS011;8103;51.340;12.326;2022-10-17T16:14:53;6.80;;;4.72;;
15996;SDS011;8103;51.340;12.326;2022-10-17T16:17:20;3.58;;;3.17;;
15996;SDS011;8103;51.340;12.326;2022-10-17T16:19:47;4.72;;;3.75;;
15996;SDS011;8103;51.340;12.326;2022-10-17T16:22:33;4.35;;;3.95;;
15996;SDS011;8103;51.340;12.326;2022-10-17T16:25:03;6.63;;;4.93;;
15996;SDS011;8103;51.340;12.326;2022-10-17T16:27:35;7.80;;;5.25;;
15996;SDS011;8103;51.340;12.326;2022-10-17T16:30:04;7.25;;;5.80;;
15996;SDS011;8103;51.340;12.326;2022-10-17T16:32:33;8.07;;;6.03;;
15996;SDS011;8103;51.340;12.326;2022-10-17T16:35:00;6.55;;;5.20;;
15996;SDS011;8103;51.340;12.326;2022-10-17T16:37:27;9.73;;;5.93;;
15996;SDS011;8103;51.340;12.326;2022-10-17T16:39:54;6.80;;;6.10;;
15996;SDS011;8103;51.340;12.326;2022-10-17T16:42:21;6.10;;;5.18;;
15996;SDS011;8103;51.340;12.326;2022-10-17T16:44:48;7.97;;;5.85;;
15996;SDS011;8103;51.340;12.326;2022-10-17T16:47:16;5.85;;;4.40;;
15996;SDS011;8103;51.340;12.326;2022-10-17T16:49:44;6.30;;;4.80;;
15996;SDS011;8103;51.340;12.326;2022-10-17T16:52:11;6.82;;;4.70;;
15996;SDS011;8103;51.340;12.326;2022-10-17T16:54:39;7.53;;;6.38;;
15996;SDS011;8103;51.340;12.326;2022-10-17T16:57:06;8.38;;;7.05;;
15996;SDS011;8103;51.340;12.326;2022-10-17T16:59:33;8.48;;;7.07;;
15996;SDS011;8103;51.340;12.326;2022-10-17T17:02:00;6.72;;;6.03;;
15996;SDS011;8103;51.340;12.326;2022-10-17T17:04:27;7.13;;;5.80;;
15996;SDS011;8103;51.340;12.326;2022-10-17T17:06:54;7.28;;;6.57;;
15996;SDS011;8103;51.340;12.326;2022-10-17T17:09:21;8.70;;;7.10;;
15996;SDS011;8103;51.340;12.326;2022-10-17T17:11:48;9.40;;;6.03;;
15996;SDS011;8103;51.340;12.326;2022-10-17T17:14:15;11.73;;;7.43;;
15996;SDS011;8103;51.340;12.326;2022-10-17T17:16:42;9.25;;;7.60;;
15996;SDS011;8103;51.340;12.326;2022-10-17T17:19:10;9.00;;;6.85;;
15996;SDS011;8103;51.340;12.326;2022-10-17T17:21:40;8.02;;;6.80;;
15996;SDS011;8103;51.340;12.326;2022-10-17T17:24:16;14.63;;;6.95;;
15996;SDS011;8103;51.340;12.326;2022-10-17T17:26:49;11.38;;;7.18;;
15996;SDS011;8103;51.340;12.326;2022-10-17T17:29:21;7.50;;;6.22;;
15996;SDS011;8103;51.340;12.326;2022-10-17T17:31:50;7.82;;;6.03;;
15996;SDS011;8103;51.340;12.326;2022-10-17T17:34:18;9.32;;;6.10;;
15996;SDS011;8103;51.340;12.326;2022-10-17T17:36:45;8.05;;;5.72;;
15996;SDS011;8103;51.340;12.326;2022-10-17T17:39:13;8.05;;;5.75;;
15996;SDS011;8103;51.340;12.326;2022-10-17T17:41:41;7.10;;;4.70;;
15996;SDS011;8103;51.340;12.326;2022-10-17T17:44:11;8.45;;;5.60;;